createdAt,value
2022-10-18T00:00:55.621Z,10.10
2022-10-18T00:03:29.854Z,11.07
2022-10-18T00:06:02.260Z,10.38
2022-10-18T00:08:34.048Z,15.90
2022-10-18T00:11:06.421Z,12.50
2022-10-18T00:13:38.990Z,9.85
2022-10-18T00:16:12.929Z,16.27
2022-10-18T00:18:47.955Z,12.27
2022-10-18T00:21:21.638Z,13.27
2022-10-18T00:23:54.433Z,14.43
2022-10-18T00:26:28.919Z,13.55
2022-10-18T00:29:03.172Z,14.00
2022-10-18T00:31:37.655Z,16.30
2022-10-18T00:34:13.810Z,12.68
2022-10-18T00:36:45.774Z,7.95
2022-10-18T00:39:20.418Z,11.63
2022-10-18T00:41:52.340Z,13.10
2022-10-18T00:45:01.137Z,11.40
2022-10-18T00:47:35.552Z,9.00
2022-10-18T00:50:10.200Z,13.32
2022-10-18T00:52:45.747Z,15.00
2022-10-18T00:55:18.103Z,11.85
2022-10-18T00:57:50.342Z,7.35
2022-10-18T01:00:22.234Z,12.13
2022-10-18T01:02:54.768Z,12.52
2022-10-18T01:05:28.230Z,10.53
2022-10-18T01:10:49.895Z,13.02
2022-10-18T01:13:35.017Z,10.90
2022-10-18T01:16:16.572Z,13.18
2022-10-18T01:18:53.069Z,14.15
2022-10-18T01:21:38.206Z,15.23
2022-10-18T01:24:45.202Z,15.50
2022-10-18T01:27:44.478Z,19.33
2022-10-18T01:30:43.326Z,10.65
2022-10-18T01:33:31.435Z,12.55
2022-10-18T01:36:08.638Z,15.15
2022-10-18T01:38:41.357Z,14.93
2022-10-18T01:41:15.827Z,14.38
2022-10-18T01:43:51.108Z,18.60
2022-10-18T01:46:25.762Z,13.68
2022-10-18T01:48:58.160Z,12.65
2022-10-18T01:51:31.704Z,11.57
2022-10-18T01:54:04.072Z,12.25
2022-10-18T01:56:43.053Z,14.63
2022-10-18T01:59:33.223Z,10.85
2022-10-18T02:02:15.415Z,9.90
2022-10-18T02:04:54.611Z,16.75
2022-10-18T02:07:32.449Z,10.02
2022-10-18T02:10:10.609Z,12.05
2022-10-18T02:12:45.049Z,17.23
2022-10-18T02:15:20.962Z,14.55
2022-10-18T02:17:55.844Z,12.73
2022-10-18T02:20:29.648Z,10.93
2022-10-18T02:23:03.735Z,13.88
2022-10-18T02:25:36.520Z,11.35
2022-10-18T02:28:08.709Z,20.35
2022-10-18T02:30:47.431Z,19.33
2022-10-18T02:33:28.005Z,15.55
2022-10-18T02:36:05.201Z,11.45
2022-10-18T02:38:38.497Z,16.83
2022-10-18T02:41:10.361Z,11.50
2022-10-18T02:43:42.164Z,15.02
2022-10-18T02:46:14.245Z,12.80
2022-10-18T02:48:47.436Z,12.05
2022-10-18T02:51:19.242Z,13.70
2022-10-18T02:53:51.120Z,11.40
2022-10-18T02:56:22.915Z,11.82
2022-10-18T02:58:54.739Z,9.82
2022-10-18T03:01:26.826Z,16.27
2022-10-18T03:04:00.162Z,14.35
2022-10-18T03:09:05.367Z,12.27
2022-10-18T03:11:37.151Z,12.45
2022-10-18T03:14:09.020Z,13.93
2022-10-18T03:16:40.827Z,9.70
2022-10-18T03:19:14.137Z,15.18
2022-10-18T03:24:17.753Z,14.88
2022-10-18T03:26:49.524Z,12.30
2022-10-18T03:29:21.298Z,9.85
2022-10-18T03:31:53.092Z,18.65
2022-10-18T03:34:26.266Z,14.80
2022-10-18T03:37:00.997Z,9.43
2022-10-18T03:39:35.260Z,13.38
2022-10-18T03:42:07.045Z,10.27
2022-10-18T03:44:38.802Z,10.68
2022-10-18T03:47:10.596Z,7.80
2022-10-18T03:49:43.777Z,11.45
2022-10-18T03:52:15.573Z,9.57
2022-10-18T03:54:47.534Z,11.82
2022-10-18T03:57:19.295Z,10.43
2022-10-18T03:59:51.167Z,13.02
2022-10-18T04:02:23.025Z,11.05
2022-10-18T04:05:03.986Z,12.57
2022-10-18T04:07:38.600Z,12.18
2022-10-18T04:10:10.785Z,13.00
2022-10-18T04:12:45.735Z,13.43
2022-10-18T04:15:20.513Z,10.05
2022-10-18T04:17:52.287Z,13.25
2022-10-18T04:20:25.862Z,16.50
2022-10-18T04:22:58.074Z,13.68
2022-10-18T04:25:29.997Z,15.02
2022-10-18T04:28:01.890Z,14.85
2022-10-18T04:30:33.660Z,11.65
2022-10-18T04:33:05.516Z,12.07
2022-10-18T04:35:38.640Z,18.33
2022-10-18T04:38:10.626Z,12.38
2022-10-18T04:40:42.427Z,14.02
2022-10-18T04:43:14.238Z,12.73
2022-10-18T04:45:46.557Z,11.30
2022-10-18T04:48:18.941Z,10.00
2022-10-18T04:50:52.147Z,12.82
2022-10-18T04:53:23.925Z,11.93
2022-10-18T04:55:55.679Z,9.75
2022-10-18T04:58:27.478Z,17.15
2022-10-18T05:00:59.293Z,11.40
2022-10-18T05:03:31.413Z,15.23
2022-10-18T05:06:05.431Z,8.40
2022-10-18T05:08:38.439Z,15.30
2022-10-18T05:13:50.034Z,9.23
2022-10-18T05:16:22.790Z,19.17
2022-10-18T05:18:54.870Z,10.77
2022-10-18T05:21:28.034Z,14.52
2022-10-18T05:23:59.864Z,16.58
2022-10-18T05:26:31.760Z,13.20
2022-10-18T05:29:03.954Z,17.13
2022-10-18T05:31:35.765Z,11.90
2022-10-18T05:34:07.569Z,11.90
2022-10-18T05:36:40.735Z,12.63
2022-10-18T05:39:12.633Z,13.32
2022-10-18T05:41:44.421Z,12.48
2022-10-18T05:44:16.270Z,18.92
2022-10-18T05:46:48.008Z,13.75
2022-10-18T05:49:19.920Z,17.42
2022-10-18T05:51:53.041Z,16.60
2022-10-18T05:54:24.850Z,14.23
2022-10-18T05:56:56.634Z,12.93
2022-10-18T05:59:28.421Z,13.57
2022-10-18T06:02:00.226Z,18.85
2022-10-18T06:04:31.982Z,20.08
2022-10-18T06:07:08.454Z,14.20
2022-10-18T06:09:40.385Z,16.58
2022-10-18T06:12:12.251Z,15.05
2022-10-18T06:14:44.236Z,11.20
2022-10-18T06:17:16.098Z,17.88
2022-10-18T06:19:47.911Z,16.38
2022-10-18T06:22:21.047Z,12.95
2022-10-18T06:24:57.157Z,13.40
2022-10-18T06:27:31.529Z,14.52
2022-10-18T06:30:03.862Z,14.80
2022-10-18T06:32:35.642Z,15.07
2022-10-18T06:35:08.335Z,15.27
2022-10-18T06:40:18.328Z,13.93
2022-10-18T06:43:00.195Z,13.05
2022-10-18T06:45:33.245Z,15.32
2022-10-18T06:48:05.711Z,16.40
2022-10-18T06:50:37.620Z,26.63
2022-10-18T06:53:10.759Z,16.63
2022-10-18T06:55:42.555Z,21.40
2022-10-18T06:58:14.608Z,17.40
2022-10-18T07:00:47.055Z,18.42
2022-10-18T07:03:18.864Z,23.27
2022-10-18T07:05:50.844Z,15.07
2022-10-18T07:08:24.097Z,15.45
2022-10-18T07:10:55.929Z,12.65
2022-10-18T07:13:33.091Z,14.70
2022-10-18T07:16:07.508Z,10.43
2022-10-18T07:18:41.145Z,16.17
2022-10-18T07:21:15.321Z,14.07
2022-10-18T07:23:49.805Z,12.50
2022-10-18T07:26:24.184Z,16.70
2022-10-18T07:28:59.065Z,12.25
2022-10-18T07:31:31.040Z,13.82
2022-10-18T07:34:04.160Z,13.18
2022-10-18T07:36:36.008Z,13.18
2022-10-18T07:39:09.271Z,14.45
2022-10-18T07:41:41.017Z,17.40
2022-10-18T07:44:12.874Z,11.35
2022-10-18T07:46:44.666Z,10.80
2022-10-18T07:49:16.966Z,11.05
2022-10-18T07:51:48.850Z,15.18
2022-10-18T07:54:22.467Z,14.52
2022-10-18T07:56:54.299Z,15.27
2022-10-18T07:59:26.138Z,14.23
2022-10-18T08:01:57.987Z,14.23
2022-10-18T08:04:29.904Z,14.55
2022-10-18T08:07:01.668Z,10.20
2022-10-18T08:09:35.045Z,12.95
2022-10-18T08:14:38.519Z,14.38
2022-10-18T08:17:10.289Z,13.73
2022-10-18T08:19:52.787Z,13.65
2022-10-18T08:22:33.992Z,13.32
2022-10-18T08:25:08.222Z,10.65
2022-10-18T08:27:39.985Z,7.38
2022-10-18T08:30:11.903Z,8.35
2022-10-18T08:32:43.700Z,9.15
2022-10-18T08:35:15.766Z,10.70
2022-10-18T08:37:48.457Z,10.77
2022-10-18T08:40:21.620Z,9.13
2022-10-18T08:43:05.756Z,11.13
2022-10-18T08:45:43.232Z,12.73
2022-10-18T08:48:21.811Z,10.13
2022-10-18T08:50:55.695Z,11.63
2022-10-18T08:53:33.088Z,23.95
2022-10-18T08:56:14.598Z,13.68
2022-10-18T08:58:46.420Z,10.40
2022-10-18T09:01:29.716Z,13.20
2022-10-18T09:04:15.943Z,10.35
2022-10-18T09:07:02.440Z,15.98
2022-10-18T09:09:42.417Z,9.40
2022-10-18T09:12:38.535Z,13.13
2022-10-18T09:15:20.094Z,10.18
2022-10-18T09:18:06.091Z,12.68
2022-10-18T09:20:50.219Z,12.43
2022-10-18T09:23:26.796Z,8.50
2022-10-18T09:26:04.106Z,9.13
2022-10-18T09:28:46.178Z,11.73
2022-10-18T09:31:25.285Z,11.63
2022-10-18T09:34:31.584Z,11.52
2022-10-18T09:37:04.280Z,10.55
2022-10-18T09:39:39.055Z,10.73
2022-10-18T09:42:16.334Z,14.15
2022-10-18T09:44:54.115Z,9.57
2022-10-18T09:47:32.686Z,10.98
2022-10-18T09:50:17.012Z,10.02
2022-10-18T09:52:54.397Z,10.05
2022-10-18T09:55:33.752Z,11.13
2022-10-18T09:58:08.039Z,10.45
2022-10-18T10:00:47.834Z,8.07
2022-10-18T10:03:19.638Z,8.32
2022-10-18T10:06:02.589Z,10.60
2022-10-18T10:08:35.246Z,11.32
2022-10-18T10:11:26.886Z,11.15
2022-10-18T10:14:08.932Z,14.20
2022-10-18T10:16:50.029Z,11.13
2022-10-18T10:19:27.555Z,8.85
2022-10-18T10:22:03.648Z,10.35
2022-10-18T10:24:47.673Z,11.75
2022-10-18T10:27:22.009Z,8.25
2022-10-18T10:29:57.613Z,7.32
2022-10-18T10:32:43.165Z,8.90
2022-10-18T10:35:41.441Z,7.28
2022-10-18T10:38:26.603Z,10.75
2022-10-18T10:40:59.021Z,5.70
2022-10-18T10:43:38.284Z,7.30
2022-10-18T10:46:12.679Z,9.68
2022-10-18T10:48:52.153Z,8.73
2022-10-18T10:51:31.533Z,8.18
2022-10-18T10:54:05.409Z,9.15
2022-10-18T10:56:50.118Z,8.20
2022-10-18T10:59:24.038Z,6.13
2022-10-18T11:02:20.582Z,8.93
2022-10-18T11:04:55.347Z,6.35
2022-10-18T11:07:32.316Z,7.13
2022-10-18T11:10:09.870Z,7.63
2022-10-18T11:12:45.076Z,8.15
2022-10-18T11:15:21.068Z,5.72
2022-10-18T11:18:05.472Z,8.43
2022-10-18T11:20:41.742Z,9.18
2022-10-18T11:31:07.054Z,7.68
2022-10-18T11:34:08.107Z,7.57
2022-10-18T11:36:56.045Z,7.65
2022-10-18T11:39:41.413Z,4.40
2022-10-18T11:42:23.465Z,7.65
2022-10-18T11:45:04.699Z,5.95
2022-10-18T11:47:52.227Z,10.13
2022-10-18T11:50:34.982Z,7.28
2022-10-18T11:53:25.217Z,4.30
2022-10-18T11:56:06.551Z,7.45
2022-10-18T12:22:36.417Z,4.05
2022-10-18T12:25:13.344Z,6.43
2022-10-18T12:27:52.823Z,5.38
2022-10-18T12:30:43.169Z,5.07
2022-10-18T12:33:33.471Z,5.63
2022-10-18T12:36:16.888Z,5.13
2022-10-18T12:41:26.559Z,5.95
2022-10-18T12:44:04.293Z,5.88
2022-10-18T12:46:48.184Z,7.90
2022-10-18T12:49:25.807Z,4.70
2022-10-18T12:51:59.618Z,6.03
2022-10-18T12:54:35.346Z,3.58
2022-10-18T12:57:22.762Z,4.47
2022-10-18T12:59:54.624Z,4.75
2022-10-18T13:02:28.941Z,5.72
2022-10-18T13:05:02.151Z,5.07
2022-10-18T13:07:41.091Z,3.72
2022-10-18T13:10:41.685Z,3.67
2022-10-18T13:13:39.142Z,5.10
2022-10-18T13:16:25.991Z,3.28
2022-10-18T13:19:01.327Z,2.95
2022-10-18T13:21:44.488Z,3.38
2022-10-18T13:24:25.965Z,4.20
2022-10-18T13:27:35.072Z,4.38
2022-10-18T13:30:32.798Z,4.95
2022-10-18T13:34:35.255Z,7.28
2022-10-18T13:37:21.318Z,4.45
2022-10-18T13:40:22.952Z,6.90
2022-10-18T13:42:54.706Z,3.72
2022-10-18T13:45:54.481Z,3.33
2022-10-18T13:48:46.731Z,4.85
2022-10-18T13:51:46.472Z,5.95
2022-10-18T13:54:42.997Z,3.85
2022-10-18T13:57:36.329Z,4.18
2022-10-18T14:00:49.069Z,5.03
2022-10-18T14:03:58.956Z,4.10
2022-10-18T14:06:36.158Z,10.07
2022-10-18T14:09:26.027Z,6.35
2022-10-18T14:12:16.838Z,7.47
2022-10-18T14:14:55.304Z,5.60
2022-10-18T14:17:33.967Z,4.75
2022-10-18T14:20:18.471Z,3.78
2022-10-18T14:22:56.347Z,7.75
2022-10-18T14:25:32.663Z,15.05
2022-10-18T14:28:13.213Z,14.35
2022-10-18T14:30:53.021Z,9.48
2022-10-18T14:33:27.114Z,11.82
2022-10-18T14:36:02.330Z,8.27
2022-10-18T14:38:36.335Z,11.40
2022-10-18T14:41:16.000Z,8.13
2022-10-18T14:43:48.423Z,12.07
2022-10-18T14:46:24.091Z,12.00
2022-10-18T14:48:58.421Z,5.03
2022-10-18T14:51:35.528Z,4.95
2022-10-18T14:54:08.171Z,4.47
2022-10-18T14:56:42.300Z,4.32
2022-10-18T14:59:18.876Z,3.97
2022-10-18T15:01:56.804Z,3.15
2022-10-18T15:04:33.203Z,2.75
2022-10-18T15:07:06.818Z,5.55
2022-10-18T15:09:38.798Z,3.08
2022-10-18T15:12:15.268Z,4.28
2022-10-18T15:14:48.310Z,3.15
2022-10-18T15:17:23.838Z,3.92
2022-10-18T15:20:00.514Z,3.45
2022-10-18T15:22:35.302Z,3.80
2022-10-18T15:25:16.230Z,3.58
2022-10-18T15:27:51.297Z,3.17
2022-10-18T15:30:27.580Z,4.32
2022-10-18T15:33:01.388Z,4.35
2022-10-18T15:35:35.536Z,5.75
2022-10-18T15:38:15.368Z,4.43
2022-10-18T15:40:47.889Z,5.25
2022-10-18T15:43:36.682Z,4.57
2022-10-18T15:46:30.352Z,4.45
2022-10-18T15:49:56.250Z,6.95
2022-10-18T15:52:38.245Z,5.75
2022-10-18T15:55:43.953Z,5.82
2022-10-18T15:58:22.842Z,5.78
2022-10-18T16:00:58.942Z,3.38
2022-10-18T16:03:33.855Z,4.78
2022-10-18T16:06:08.023Z,4.75
2022-10-18T16:08:42.338Z,4.72
2022-10-18T16:11:16.343Z,20.83
2022-10-18T16:13:48.707Z,29.10
2022-10-18T16:16:23.617Z,24.60
2022-10-18T16:18:56.330Z,15.20
2022-10-18T16:21:31.315Z,10.15
2022-10-18T16:24:03.579Z,6.30
2022-10-18T16:26:36.428Z,8.85
2022-10-18T16:29:13.313Z,4.18
2022-10-18T16:31:46.745Z,6.70
2022-10-18T16:34:18.798Z,8.40
2022-10-18T16:36:50.567Z,4.60
2022-10-18T16:39:22.808Z,3.35
2022-10-18T16:41:54.671Z,4.88
2022-10-18T16:44:26.576Z,5.22
2022-10-18T16:46:59.898Z,5.60
2022-10-18T16:52:03.473Z,3.58
2022-10-18T16:54:35.769Z,4.00
2022-10-18T16:57:07.628Z,5.93
2022-10-18T16:59:39.413Z,5.78
2022-10-18T17:02:12.499Z,4.05
2022-10-18T17:04:44.247Z,4.38
2022-10-18T17:07:23.365Z,8.45
2022-10-18T17:09:55.184Z,7.70
2022-10-18T17:12:27.001Z,4.28
2022-10-18T17:14:58.866Z,6.68
2022-10-18T17:17:32.453Z,5.38
2022-10-18T17:20:06.686Z,6.47
2022-10-18T17:22:38.458Z,6.97
2022-10-18T17:25:10.383Z,9.20
2022-10-18T17:27:42.512Z,4.25
2022-10-18T17:30:15.157Z,5.10
2022-10-18T17:32:48.324Z,8.50
2022-10-18T17:35:20.251Z,12.30
2022-10-18T17:37:53.605Z,9.73
2022-10-18T17:42:57.262Z,7.55
2022-10-18T17:45:29.058Z,11.30
2022-10-18T17:48:02.306Z,9.38
2022-10-18T17:53:05.773Z,9.13
2022-10-18T17:55:37.586Z,11.88
2022-10-18T17:58:10.065Z,7.80
2022-10-18T18:00:41.884Z,8.18
2022-10-18T18:03:14.969Z,15.95
2022-10-18T18:05:47.385Z,12.27
2022-10-18T18:08:19.293Z,10.52
2022-10-18T18:10:54.372Z,15.98
2022-10-18T18:13:26.312Z,7.82
2022-10-18T18:15:58.077Z,9.20
2022-10-18T18:18:31.216Z,7.97
2022-10-18T18:21:03.097Z,8.05
2022-10-18T18:23:34.940Z,4.80
2022-10-18T18:26:06.836Z,6.75
2022-10-18T18:28:38.902Z,7.53
2022-10-18T18:31:12.284Z,7.45
2022-10-18T18:36:17.635Z,9.35
2022-10-18T18:38:55.459Z,10.00
2022-10-18T18:41:29.518Z,5.97
2022-10-18T18:44:04.127Z,10.18
2022-10-18T18:46:39.113Z,7.28
2022-10-18T18:49:12.941Z,11.48
2022-10-18T18:51:44.943Z,6.85
2022-10-18T18:54:17.105Z,8.38
2022-10-18T18:56:48.946Z,4.80
2022-10-18T18:59:20.812Z,10.18
2022-10-18T19:01:52.723Z,6.78
2022-10-18T19:04:26.436Z,9.68
2022-10-18T19:06:58.230Z,8.25
2022-10-18T19:09:30.139Z,9.15
2022-10-18T19:12:01.892Z,9.57
2022-10-18T19:14:33.839Z,6.22
2022-10-18T19:17:07.858Z,10.25
2022-10-18T19:19:41.080Z,6.45
2022-10-18T19:24:44.488Z,6.72
2022-10-18T19:27:16.254Z,6.22
2022-10-18T19:29:48.774Z,13.32
2022-10-18T19:32:20.761Z,12.45
2022-10-18T19:34:53.976Z,11.50
2022-10-18T19:37:25.892Z,7.97
2022-10-18T19:39:58.564Z,10.02
2022-10-18T19:42:31.427Z,8.05
2022-10-18T19:47:38.276Z,7.20
2022-10-18T19:50:11.546Z,5.78
2022-10-18T19:55:15.240Z,9.73
2022-10-18T19:57:47.058Z,10.70
2022-10-18T20:00:19.768Z,7.05
2022-10-18T20:02:51.634Z,11.88
2022-10-18T20:05:24.807Z,11.85
2022-10-18T20:07:56.566Z,10.77
2022-10-18T20:10:28.330Z,54.10
2022-10-18T20:13:00.225Z,114.05
2022-10-18T20:15:31.993Z,17.20
2022-10-18T20:18:03.908Z,13.68
2022-10-18T20:20:37.191Z,14.20
2022-10-18T20:25:40.909Z,10.23
2022-10-18T20:28:12.683Z,6.45
2022-10-18T20:30:44.543Z,6.40
2022-10-18T20:33:16.410Z,6.70
2022-10-18T20:35:52.245Z,8.02
2022-10-18T20:38:24.428Z,5.03
2022-10-18T20:40:56.285Z,9.13
2022-10-18T20:43:28.461Z,11.02
2022-10-18T20:46:01.509Z,9.57
2022-10-18T20:48:34.145Z,19.42
2022-10-18T20:51:09.540Z,17.88
2022-10-18T20:53:41.373Z,10.93
2022-10-18T20:56:15.131Z,12.25
2022-10-18T20:58:48.397Z,14.65
2022-10-18T21:03:54.608Z,5.50
2022-10-18T21:06:30.401Z,10.63
2022-10-18T21:09:05.791Z,7.78
2022-10-18T21:11:39.149Z,7.70
2022-10-18T21:16:44.379Z,15.50
2022-10-18T21:19:20.255Z,12.85
2022-10-18T21:21:56.037Z,8.00
2022-10-18T21:24:27.857Z,8.88
2022-10-18T21:27:00.340Z,7.85
2022-10-18T21:29:32.210Z,12.25
2022-10-18T21:32:04.269Z,14.95
2022-10-18T21:34:36.071Z,11.85
2022-10-18T21:37:09.302Z,14.02
2022-10-18T21:39:42.263Z,13.82
2022-10-18T21:42:14.105Z,11.52
2022-10-18T21:44:45.880Z,12.00
2022-10-18T21:47:17.655Z,10.98
2022-10-18T21:49:49.504Z,10.23
2022-10-18T21:52:22.696Z,9.20
2022-10-18T21:54:54.421Z,15.90
2022-10-18T21:57:26.234Z,11.63
2022-10-18T21:59:58.007Z,19.08
2022-10-18T22:02:29.978Z,8.35
2022-10-18T22:05:01.898Z,11.50
2022-10-18T22:07:35.439Z,11.73
2022-10-18T22:10:08.061Z,11.13
2022-10-18T22:12:39.818Z,8.02
2022-10-18T22:15:11.551Z,8.98
2022-10-18T22:17:43.468Z,12.80
2022-10-18T22:20:15.420Z,8.65
2022-10-18T22:22:48.638Z,7.78
2022-10-18T22:25:20.403Z,36.78
2022-10-18T22:27:52.180Z,8.23
2022-10-18T22:30:23.973Z,69.93
2022-10-18T22:32:55.800Z,44.55
2022-10-18T22:35:27.559Z,12.57
2022-10-18T22:38:00.746Z,11.93
2022-10-18T22:40:32.500Z,9.90
2022-10-18T22:43:04.362Z,7.70
2022-10-18T22:45:36.141Z,9.20
2022-10-18T22:48:07.946Z,32.33
2022-10-18T22:50:39.686Z,10.25
2022-10-18T22:53:12.798Z,12.95
2022-10-18T22:55:44.543Z,19.40
2022-10-18T22:58:16.369Z,13.70
2022-10-18T23:00:48.239Z,37.35
2022-10-18T23:03:19.999Z,41.13
2022-10-18T23:05:51.963Z,24.70
2022-10-18T23:08:25.744Z,12.70
2022-10-18T23:10:59.096Z,8.95
2022-10-18T23:16:04.567Z,53.55
2022-10-18T23:18:36.839Z,166.43
2022-10-18T23:21:10.423Z,143.48
2022-10-18T23:23:43.802Z,66.10
2022-10-18T23:28:50.186Z,77.63
2022-10-18T23:31:23.821Z,29.70
2022-10-18T23:33:58.354Z,40.22
2022-10-18T23:36:30.948Z,45.88
2022-10-18T23:39:04.741Z,55.80
2022-10-18T23:41:36.540Z,54.92
2022-10-18T23:44:09.072Z,76.55
2022-10-18T23:46:40.849Z,56.33
2022-10-18T23:49:12.814Z,53.20
2022-10-18T23:51:44.627Z,35.15
2022-10-18T23:54:17.779Z,81.97
2022-10-18T23:56:49.706Z,62.00
2022-10-18T23:59:21.516Z,61.90
